createdAt,value
2019-02-04T00:01:27.018Z,86.30
2019-02-04T00:03:58.281Z,85.74
2019-02-04T00:06:26.150Z,85.62
2019-02-04T00:08:54.089Z,85.47
2019-02-04T00:11:21.870Z,85.46
2019-02-04T00:13:49.823Z,85.73
2019-02-04T00:16:18.314Z,84.98
2019-02-04T00:18:46.311Z,85.01
2019-02-04T00:21:14.328Z,84.98
2019-02-04T00:23:42.162Z,85.36
2019-02-04T00:26:09.997Z,86.00
2019-02-04T00:28:37.934Z,85.89
2019-02-04T00:31:05.864Z,85.44
2019-02-04T00:33:33.695Z,85.34
2019-02-04T00:36:01.470Z,85.67
2019-02-04T00:38:29.257Z,85.15
2019-02-04T00:40:57.023Z,85.10
2019-02-04T00:43:24.798Z,85.30
2019-02-04T00:45:52.735Z,85.82
2019-02-04T00:48:20.793Z,86.31
2019-02-04T00:50:49.124Z,86.22
2019-02-04T00:53:16.931Z,86.47
2019-02-04T00:55:44.890Z,87.35
2019-02-04T00:58:12.696Z,86.12
2019-02-04T01:00:40.486Z,85.83
2019-02-04T01:03:08.460Z,85.74
2019-02-04T01:05:36.212Z,86.36
2019-02-04T01:08:04.665Z,86.46
2019-02-04T01:10:32.610Z,86.94
2019-02-04T01:13:00.373Z,87.68
2019-02-04T01:15:28.570Z,88.17
2019-02-04T01:17:56.326Z,88.48
2019-02-04T01:20:26.471Z,88.86
2019-02-04T01:22:54.710Z,89.21
2019-02-04T01:25:22.492Z,89.77
2019-02-04T01:27:50.284Z,90.09
2019-02-04T01:30:19.649Z,90.44
2019-02-04T01:32:47.424Z,90.71
2019-02-04T01:35:15.169Z,90.85
2019-02-04T01:37:43.238Z,90.79
2019-02-04T01:40:20.598Z,90.19
2019-02-04T01:42:48.774Z,89.62
2019-02-04T01:45:16.546Z,88.28
2019-02-04T01:47:44.463Z,87.27
2019-02-04T01:50:15.603Z,86.51
2019-02-04T01:52:43.425Z,86.06
2019-02-04T01:55:11.391Z,86.14
2019-02-04T01:57:39.304Z,86.87
2019-02-04T02:00:32.777Z,87.32
2019-02-04T02:03:00.806Z,87.40
2019-02-04T02:05:28.678Z,87.50
2019-02-04T02:07:56.566Z,87.61
2019-02-04T02:10:25.783Z,87.37
2019-02-04T02:12:53.817Z,87.12
2019-02-04T02:15:21.980Z,87.15
2019-02-04T02:17:50.225Z,87.50
2019-02-04T02:20:21.174Z,87.57
2019-02-04T02:22:49.123Z,87.52
2019-02-04T02:25:16.892Z,87.58
2019-02-04T02:27:44.731Z,87.86
2019-02-04T02:30:25.415Z,87.91
2019-02-04T02:32:53.444Z,88.05
2019-02-04T02:35:21.705Z,88.33
2019-02-04T02:37:49.460Z,88.18
2019-02-04T02:40:21.782Z,88.49
2019-02-04T02:42:49.712Z,88.70
2019-02-04T02:45:17.892Z,88.84
2019-02-04T02:47:45.781Z,88.65
2019-02-04T02:50:13.991Z,88.22
2019-02-04T02:52:41.766Z,88.38
2019-02-04T02:55:11.017Z,88.62
2019-02-04T02:57:38.777Z,88.85
2019-02-04T03:00:10.915Z,88.95
2019-02-04T03:02:38.780Z,89.37
2019-02-04T03:05:08.924Z,89.86
2019-02-04T03:07:36.846Z,90.08
2019-02-04T03:10:06.896Z,90.38
2019-02-04T03:12:34.728Z,90.31
2019-02-04T03:15:03.521Z,90.50
2019-02-04T03:17:31.278Z,90.10
2019-02-04T03:19:59.062Z,88.89
2019-02-04T03:22:26.810Z,88.37
2019-02-04T03:24:54.567Z,87.62
2019-02-04T03:27:22.341Z,87.49
2019-02-04T03:29:50.052Z,87.35
2019-02-04T03:32:18.065Z,87.52
2019-02-04T03:34:45.824Z,87.52
2019-02-04T03:37:13.577Z,87.58
2019-02-04T03:39:41.308Z,87.67
2019-02-04T03:42:09.065Z,88.04
2019-02-04T03:44:37.001Z,88.16
2019-02-04T03:47:04.738Z,88.20
2019-02-04T03:49:32.507Z,87.84
2019-02-04T03:52:00.451Z,87.98
2019-02-04T03:54:28.190Z,87.89
2019-02-04T03:56:55.989Z,88.16
2019-02-04T03:59:23.926Z,88.11
2019-02-04T04:01:52.059Z,88.32
2019-02-04T04:04:20.160Z,88.60
2019-02-04T04:06:47.915Z,88.80
2019-02-04T04:09:15.862Z,89.06
2019-02-04T04:11:43.662Z,89.00
2019-02-04T04:14:11.447Z,89.27
2019-02-04T04:16:39.308Z,89.41
2019-02-04T04:19:07.337Z,89.36
2019-02-04T04:21:35.206Z,89.13
2019-02-04T04:24:03.103Z,89.44
2019-02-04T04:26:30.890Z,89.07
2019-02-04T04:28:58.814Z,88.61
2019-02-04T04:31:26.551Z,88.56
2019-02-04T04:33:54.470Z,88.87
2019-02-04T04:36:22.513Z,89.14
2019-02-04T04:38:50.280Z,89.08
2019-02-04T04:41:18.262Z,88.77
2019-02-04T04:43:46.189Z,88.59
2019-02-04T04:46:13.941Z,89.02
2019-02-04T04:48:41.967Z,89.34
2019-02-04T04:51:09.704Z,89.61
2019-02-04T04:53:37.483Z,89.07
2019-02-04T04:56:05.268Z,89.32
2019-02-04T04:58:33.264Z,89.20
2019-02-04T05:01:01.018Z,89.28
2019-02-04T05:03:28.810Z,89.50
2019-02-04T05:05:56.569Z,89.65
2019-02-04T05:08:24.813Z,89.70
2019-02-04T05:10:52.564Z,89.72
2019-02-04T05:13:20.540Z,90.13
2019-02-04T05:15:48.557Z,90.23
2019-02-04T05:18:16.557Z,90.15
2019-02-04T05:20:44.338Z,90.05
2019-02-04T05:23:12.298Z,90.14
2019-02-04T05:25:40.222Z,90.00
2019-02-04T05:28:08.157Z,89.97
2019-02-04T05:30:35.946Z,90.32
2019-02-04T05:33:03.868Z,90.08
2019-02-04T05:35:31.603Z,90.27
2019-02-04T05:37:59.391Z,90.24
2019-02-04T05:40:27.874Z,90.28
2019-02-04T05:42:55.694Z,90.49
2019-02-04T05:45:23.673Z,90.70
2019-02-04T05:47:51.431Z,90.86
2019-02-04T05:50:19.526Z,90.83
2019-02-04T05:52:47.925Z,90.89
2019-02-04T05:55:17.754Z,90.97
2019-02-04T05:57:45.622Z,90.92
2019-02-04T06:00:38.071Z,90.77
2019-02-04T06:03:05.852Z,90.52
2019-02-04T06:05:33.775Z,90.63
2019-02-04T06:08:01.721Z,90.76
2019-02-04T06:10:29.699Z,90.38
2019-02-04T06:12:57.451Z,90.56
2019-02-04T06:15:25.338Z,90.75
2019-02-04T06:17:53.067Z,90.89
2019-02-04T06:20:22.834Z,90.99
2019-02-04T06:22:51.080Z,91.14
2019-02-04T06:25:18.854Z,91.60
2019-02-04T06:27:47.680Z,90.96
2019-02-04T06:30:16.035Z,91.06
2019-02-04T06:32:43.793Z,91.58
2019-02-04T06:35:11.929Z,91.61
2019-02-04T06:37:39.807Z,91.45
2019-02-04T06:40:09.885Z,91.50
2019-02-04T06:42:37.663Z,91.58
2019-02-04T06:45:08.220Z,91.34
2019-02-04T06:47:36.042Z,91.01
2019-02-04T06:50:06.216Z,91.26
2019-02-04T06:52:34.098Z,91.40
2019-02-04T06:55:01.961Z,91.22
2019-02-04T06:57:29.743Z,91.19
2019-02-04T06:59:57.831Z,90.76
2019-02-04T07:02:25.762Z,91.06
2019-02-04T07:04:53.578Z,91.24
2019-02-04T07:07:21.538Z,91.33
2019-02-04T07:09:49.308Z,91.11
2019-02-04T07:12:17.080Z,90.55
2019-02-04T07:14:44.908Z,89.98
2019-02-04T07:17:12.780Z,90.09
2019-02-04T07:19:40.729Z,90.33
2019-02-04T07:22:08.465Z,90.10
2019-02-04T07:24:42.870Z,89.86
2019-02-04T07:27:05.906Z,89.74
2019-02-04T07:29:33.812Z,89.54
2019-02-04T07:32:01.582Z,89.34
2019-02-04T07:34:29.367Z,89.64
2019-02-04T07:36:57.191Z,89.51
2019-02-04T07:39:25.068Z,89.32
2019-02-04T07:41:52.836Z,88.96
2019-02-04T07:44:20.875Z,88.88
2019-02-04T07:46:48.679Z,88.97
2019-02-04T07:49:16.443Z,88.56
2019-02-04T07:51:44.259Z,88.45
2019-02-04T07:54:12.111Z,88.39
2019-02-04T07:56:39.907Z,88.37
2019-02-04T07:59:07.662Z,88.11
2019-02-04T08:01:35.714Z,88.00
2019-02-04T08:04:03.613Z,87.45
2019-02-04T08:06:31.380Z,87.18
2019-02-04T08:08:59.174Z,86.87
2019-02-04T08:11:26.933Z,86.94
2019-02-04T08:13:55.210Z,87.09
2019-02-04T08:16:23.059Z,86.37
2019-02-04T08:18:50.819Z,86.49
2019-02-04T08:21:18.607Z,86.17
2019-02-04T08:23:46.397Z,85.96
2019-02-04T08:26:14.173Z,85.03
2019-02-04T08:28:41.961Z,85.19
2019-02-04T08:31:09.734Z,84.48
2019-02-04T08:33:37.473Z,84.26
2019-02-04T08:36:05.473Z,84.30
2019-02-04T08:38:33.205Z,84.04
2019-02-04T08:41:01.026Z,84.00
2019-02-04T08:43:28.799Z,84.08
2019-02-04T08:45:56.523Z,83.71
2019-02-04T08:48:24.285Z,83.02
2019-02-04T08:50:52.146Z,82.91
2019-02-04T08:53:19.947Z,82.42
2019-02-04T08:55:47.726Z,81.87
2019-02-04T08:58:16.291Z,82.16
2019-02-04T09:00:44.116Z,81.99
2019-02-04T09:03:11.913Z,82.17
2019-02-04T09:05:39.736Z,81.07
2019-02-04T09:08:10.161Z,80.75
2019-02-04T09:10:37.928Z,80.42
2019-02-04T09:13:05.697Z,80.38
2019-02-04T09:15:33.453Z,79.96
2019-02-04T09:18:01.830Z,78.91
2019-02-04T09:20:29.603Z,78.52
2019-02-04T09:22:57.374Z,78.09
2019-02-04T09:25:25.386Z,77.19
2019-02-04T09:27:53.416Z,76.89
2019-02-04T09:30:23.440Z,76.55
2019-02-04T09:32:51.654Z,76.27
2019-02-04T09:35:19.996Z,76.19
2019-02-04T09:37:47.768Z,75.76
2019-02-04T09:40:19.975Z,74.87
2019-02-04T09:42:48.045Z,74.64
2019-02-04T09:45:16.080Z,74.92
2019-02-04T09:47:44.250Z,74.78
2019-02-04T09:50:21.929Z,72.69
2019-02-04T09:52:45.218Z,70.53
2019-02-04T09:55:17.741Z,67.23
2019-02-04T09:57:45.820Z,61.16
2019-02-04T10:00:18.228Z,52.07
2019-02-04T10:02:46.007Z,45.97
2019-02-04T10:05:15.360Z,42.44
2019-02-04T10:07:43.170Z,39.54
2019-02-04T10:10:13.513Z,37.62
2019-02-04T10:12:41.290Z,39.36
2019-02-04T10:15:13.631Z,39.46
2019-02-04T10:17:41.384Z,36.91
2019-02-04T10:20:11.264Z,36.11
2019-02-04T10:22:39.057Z,35.31
2019-02-04T10:25:08.275Z,33.56
2019-02-04T10:27:36.138Z,30.64
2019-02-04T10:30:07.854Z,28.02
2019-02-04T10:32:35.664Z,26.41
2019-02-04T10:35:04.272Z,25.85
2019-02-04T10:37:32.170Z,24.53
2019-02-04T10:40:00.005Z,22.64
2019-02-04T10:42:27.934Z,23.55
2019-02-04T10:44:55.782Z,22.76
2019-02-04T10:47:23.543Z,21.37
2019-02-04T10:49:51.531Z,22.03
2019-02-04T10:52:19.343Z,20.60
2019-02-04T10:54:47.239Z,22.34
2019-02-04T10:57:15.186Z,23.22
2019-02-04T10:59:43.058Z,23.46
2019-02-04T11:02:11.449Z,22.58
2019-02-04T11:04:39.304Z,21.45
2019-02-04T11:07:07.062Z,22.39
2019-02-04T11:09:35.013Z,22.40
2019-02-04T11:12:03.149Z,24.47
2019-02-04T11:14:31.311Z,27.82
2019-02-04T11:16:59.072Z,29.30
2019-02-04T11:19:26.972Z,33.45
2019-02-04T11:21:54.900Z,31.23
2019-02-04T11:24:22.751Z,28.60
2019-02-04T11:26:50.706Z,26.73
2019-02-04T11:29:18.900Z,27.02
2019-02-04T11:31:46.786Z,24.71
2019-02-04T11:34:14.578Z,23.53
2019-02-04T11:36:42.411Z,22.83
2019-02-04T11:39:10.303Z,21.60
2019-02-04T11:41:38.101Z,22.95
2019-02-04T11:44:05.884Z,26.27
2019-02-04T11:46:33.666Z,27.54
2019-02-04T11:49:01.575Z,30.13
2019-02-04T11:51:29.392Z,25.90
2019-02-04T11:53:57.156Z,22.98
2019-02-04T11:56:24.998Z,24.63
2019-02-04T11:58:52.794Z,24.12
2019-02-04T12:01:20.594Z,22.23
2019-02-04T12:03:48.669Z,20.14
2019-02-04T12:06:17.559Z,21.24
2019-02-04T12:08:45.525Z,19.79
2019-02-04T12:11:16.840Z,20.78
2019-02-04T12:13:46.944Z,21.36
2019-02-04T12:16:14.825Z,21.67
2019-02-04T12:18:43.021Z,19.57
2019-02-04T12:21:21.044Z,20.02
2019-02-04T12:23:40.697Z,25.18
2019-02-04T12:26:08.461Z,29.54
2019-02-04T12:28:36.277Z,33.96
2019-02-04T12:31:04.683Z,35.39
2019-02-04T12:33:32.499Z,37.83
2019-02-04T12:36:02.147Z,40.41
2019-02-04T12:38:30.024Z,43.08
2019-02-04T12:40:57.956Z,44.58
2019-02-04T12:43:25.716Z,45.88
2019-02-04T12:45:53.480Z,46.37
2019-02-04T12:48:21.303Z,47.43
2019-02-04T12:50:49.085Z,48.59
2019-02-04T12:53:16.899Z,49.41
2019-02-04T12:55:44.696Z,49.80
2019-02-04T12:58:12.477Z,50.98
2019-02-04T13:00:40.376Z,50.83
2019-02-04T13:03:08.188Z,50.04
2019-02-04T13:05:42.510Z,50.15
2019-02-04T13:08:11.037Z,50.90
2019-02-04T13:10:38.903Z,51.02
2019-02-04T13:13:10.299Z,50.68
2019-02-04T13:15:38.416Z,51.87
2019-02-04T13:18:06.596Z,51.80
2019-02-04T13:20:34.557Z,51.96
2019-02-04T13:23:02.973Z,52.06
2019-02-04T13:25:30.746Z,52.51
2019-02-04T13:27:58.618Z,53.45
2019-02-04T13:30:26.754Z,54.09
2019-02-04T13:32:55.162Z,54.50
2019-02-04T13:35:23.032Z,54.14
2019-02-04T13:37:51.695Z,54.93
2019-02-04T13:40:23.168Z,54.67
2019-02-04T13:42:50.958Z,54.46
2019-02-04T13:45:19.585Z,54.50
2019-02-04T13:47:48.165Z,54.28
2019-02-04T13:50:16.510Z,54.32
2019-02-04T13:52:44.999Z,53.43
2019-02-04T13:55:25.634Z,53.93
2019-02-04T13:57:53.429Z,52.97
2019-02-04T14:00:23.297Z,51.84
2019-02-04T14:02:58.848Z,51.98
2019-02-04T14:05:20.881Z,51.70
2019-02-04T14:07:48.694Z,51.51
2019-02-04T14:10:26.091Z,51.15
2019-02-04T14:12:54.095Z,51.95
2019-02-04T14:15:22.567Z,50.04
2019-02-04T14:17:50.461Z,50.28
2019-02-04T14:20:18.775Z,50.13
2019-02-04T14:22:46.689Z,50.48
2019-02-04T14:25:14.699Z,50.85
2019-02-04T14:27:42.829Z,52.02
2019-02-04T14:30:18.208Z,53.30
2019-02-04T14:32:46.173Z,53.78
2019-02-04T14:35:14.072Z,53.41
2019-02-04T14:37:44.986Z,54.55
2019-02-04T14:40:18.676Z,55.14
2019-02-04T14:42:42.658Z,55.96
2019-02-04T14:46:26.564Z,57.04
2019-02-04T14:49:38.014Z,57.96
2019-02-04T14:53:00.297Z,58.70
2019-02-04T14:56:10.288Z,58.93
2019-02-04T14:59:20.314Z,56.08
2019-02-04T15:02:31.151Z,54.62
2019-02-04T15:05:45.141Z,54.15
2019-02-04T15:09:22.462Z,54.78
2019-02-04T15:12:17.770Z,55.86
2019-02-04T15:15:36.178Z,57.10
2019-02-04T15:19:09.834Z,58.60
2019-02-04T15:22:36.604Z,61.04
2019-02-04T15:25:34.896Z,61.79
2019-02-04T15:28:43.372Z,63.90
2019-02-04T15:32:07.562Z,64.73
2019-02-04T15:35:34.874Z,66.12
2019-02-04T15:38:51.308Z,66.25
2019-02-04T15:42:13.595Z,66.60
2019-02-04T15:45:34.731Z,67.02
2019-02-04T15:48:24.923Z,66.81
2019-02-04T15:51:32.065Z,67.21
2019-02-04T15:54:03.873Z,66.86
2019-02-04T15:56:31.662Z,67.17
2019-02-04T15:58:59.428Z,67.29
2019-02-04T16:01:27.264Z,67.05
2019-02-04T16:03:55.260Z,66.87
2019-02-04T16:06:23.028Z,67.05
2019-02-04T16:08:51.189Z,67.39
2019-02-04T16:11:18.959Z,66.78
2019-02-04T16:13:46.919Z,67.28
2019-02-04T16:16:14.748Z,67.50
2019-02-04T16:18:42.743Z,67.29
2019-02-04T16:21:10.593Z,67.12
2019-02-04T16:23:38.371Z,67.34
2019-02-04T16:26:06.263Z,67.41
2019-02-04T16:28:34.067Z,67.37
2019-02-04T16:31:01.933Z,68.16
2019-02-04T16:33:29.729Z,68.33
2019-02-04T16:35:57.473Z,67.21
2019-02-04T16:38:25.234Z,67.53
2019-02-04T16:40:53.091Z,67.96
2019-02-04T16:43:20.871Z,67.36
2019-02-04T16:45:48.682Z,67.63
2019-02-04T16:48:16.458Z,67.98
2019-02-04T16:50:44.235Z,68.71
2019-02-04T16:53:12.040Z,68.76
2019-02-04T16:55:39.838Z,68.83
2019-02-04T16:58:08.068Z,69.20
2019-02-04T17:00:38.786Z,69.04
2019-02-04T17:03:06.604Z,69.20
2019-02-04T17:05:34.636Z,69.53
2019-02-04T17:08:03.188Z,69.79
2019-02-04T17:10:30.984Z,70.70
2019-02-04T17:12:58.810Z,70.82
2019-02-04T17:15:26.967Z,70.68
2019-02-04T17:17:54.848Z,71.29
2019-02-04T17:20:28.913Z,71.16
2019-02-04T17:22:56.764Z,71.06
2019-02-04T17:25:24.592Z,70.85
2019-02-04T17:27:52.405Z,70.92
2019-02-04T17:30:22.377Z,70.90
2019-02-04T17:32:50.376Z,71.45
2019-02-04T17:35:20.033Z,71.10
2019-02-04T17:37:47.838Z,71.53
2019-02-04T17:40:18.495Z,71.62
2019-02-04T17:42:46.688Z,71.24
2019-02-04T17:45:15.441Z,71.49
2019-02-04T17:47:43.841Z,71.66
2019-02-04T17:50:13.968Z,71.39
2019-02-04T17:52:41.942Z,71.25
2019-02-04T17:55:13.921Z,71.62
2019-02-04T17:57:41.906Z,71.02
2019-02-04T18:00:21.394Z,70.93
2019-02-04T18:02:49.441Z,71.27
2019-02-04T18:05:17.722Z,71.12
2019-02-04T18:07:45.550Z,71.10
2019-02-04T18:10:14.221Z,71.14
2019-02-04T18:12:42.072Z,70.76
2019-02-04T18:15:13.556Z,71.02
2019-02-04T18:17:41.379Z,70.68
2019-02-04T18:20:12.004Z,70.85
2019-02-04T18:22:39.734Z,70.92
2019-02-04T18:25:09.536Z,70.92
2019-02-04T18:27:37.337Z,70.47
2019-02-04T18:30:08.287Z,70.34
2019-02-04T18:32:36.277Z,70.17
2019-02-04T18:35:05.813Z,70.44
2019-02-04T18:37:33.744Z,70.02
2019-02-04T18:40:02.056Z,69.89
2019-02-04T18:42:30.164Z,69.39
2019-02-04T18:44:58.336Z,69.09
2019-02-04T18:47:26.224Z,68.84
2019-02-04T18:49:54.186Z,69.22
2019-02-04T18:52:22.233Z,69.13
2019-02-04T18:54:50.109Z,68.92
2019-02-04T18:57:18.197Z,68.83
2019-02-04T18:59:46.087Z,68.61
2019-02-04T19:02:13.873Z,68.64
2019-02-04T19:04:41.690Z,68.56
2019-02-04T19:07:09.530Z,67.98
2019-02-04T19:09:37.387Z,68.45
2019-02-04T19:12:05.468Z,68.45
2019-02-04T19:14:33.568Z,68.01
2019-02-04T19:17:01.371Z,68.51
2019-02-04T19:19:29.222Z,68.39
2019-02-04T19:21:57.033Z,68.58
2019-02-04T19:24:24.821Z,69.14
2019-02-04T19:26:54.068Z,69.13
2019-02-04T19:29:22.009Z,69.23
2019-02-04T19:31:49.833Z,69.29
2019-02-04T19:34:17.661Z,69.33
2019-02-04T19:36:45.430Z,69.66
2019-02-04T19:39:13.297Z,70.03
2019-02-04T19:41:41.086Z,69.42
2019-02-04T19:44:08.903Z,69.11
2019-02-04T19:46:36.722Z,69.47
2019-02-04T19:49:04.667Z,70.03
2019-02-04T19:51:32.456Z,70.19
2019-02-04T19:54:00.248Z,69.80
2019-02-04T19:56:28.022Z,69.94
2019-02-04T19:58:55.899Z,70.34
2019-02-04T20:01:23.635Z,69.92
2019-02-04T20:03:51.436Z,70.23
2019-02-04T20:06:19.251Z,70.54
2019-02-04T20:08:47.071Z,69.90
2019-02-04T20:11:14.926Z,70.43
2019-02-04T20:13:42.658Z,70.81
2019-02-04T20:16:10.637Z,70.93
2019-02-04T20:18:38.503Z,70.83
2019-02-04T20:21:06.301Z,70.05
2019-02-04T20:23:34.105Z,70.64
2019-02-04T20:26:01.927Z,70.01
2019-02-04T20:28:29.700Z,70.14
2019-02-04T20:30:57.520Z,70.60
2019-02-04T20:33:25.368Z,70.55
2019-02-04T20:35:54.133Z,70.68
2019-02-04T20:38:22.201Z,70.44
2019-02-04T20:40:50.019Z,71.10
2019-02-04T20:43:17.855Z,71.19
2019-02-04T20:45:45.633Z,71.69
2019-02-04T20:48:14.279Z,71.32
2019-02-04T20:50:44.076Z,71.42
2019-02-04T20:53:12.063Z,71.34
2019-02-04T20:55:40.382Z,71.31
2019-02-04T20:58:08.537Z,71.62
2019-02-04T21:00:36.358Z,70.97
2019-02-04T21:03:04.541Z,71.10
2019-02-04T21:05:32.381Z,70.72
2019-02-04T21:08:00.181Z,70.94
2019-02-04T21:10:28.209Z,70.55
2019-02-04T21:12:56.730Z,70.12
2019-02-04T21:15:24.984Z,70.15
2019-02-04T21:17:52.931Z,70.25
2019-02-04T21:20:22.880Z,70.38
2019-02-04T21:22:50.660Z,70.59
2019-02-04T21:25:18.577Z,70.44
2019-02-04T21:27:46.369Z,70.14
2019-02-04T21:30:20.502Z,69.80
2019-02-04T21:32:48.282Z,70.27
2019-02-04T21:35:16.074Z,70.28
2019-02-04T21:37:43.820Z,69.83
2019-02-04T21:40:11.929Z,70.14
2019-02-04T21:42:42.800Z,69.59
2019-02-04T21:45:13.583Z,69.54
2019-02-04T21:47:41.344Z,69.38
2019-02-04T21:50:13.443Z,69.20
2019-02-04T21:52:41.366Z,69.09
2019-02-04T21:55:09.508Z,69.19
2019-02-04T21:57:37.253Z,69.05
2019-02-04T22:00:09.745Z,69.76
2019-02-04T22:02:37.519Z,68.80
2019-02-04T22:05:08.657Z,68.65
2019-02-04T22:07:36.445Z,68.89
2019-02-04T22:10:08.629Z,69.16
2019-02-04T22:12:36.666Z,68.73
2019-02-04T22:15:05.885Z,68.70
2019-02-04T22:17:33.647Z,68.94
2019-02-04T22:20:01.603Z,68.96
2019-02-04T22:22:29.661Z,68.75
2019-02-04T22:24:57.605Z,68.83
2019-02-04T22:27:25.691Z,68.74
2019-02-04T22:29:53.599Z,68.68
2019-02-04T22:32:21.643Z,68.61
2019-02-04T22:34:49.730Z,68.52
2019-02-04T22:37:17.474Z,68.52
2019-02-04T22:39:45.421Z,68.66
2019-02-04T22:42:13.131Z,68.58
2019-02-04T22:44:41.059Z,68.11
2019-02-04T22:47:08.841Z,68.43
2019-02-04T22:49:36.822Z,68.46
2019-02-04T22:52:04.859Z,68.65
2019-02-04T22:54:32.631Z,68.56
2019-02-04T22:57:00.400Z,68.39
2019-02-04T22:59:28.161Z,68.51
2019-02-04T23:01:57.471Z,68.87
2019-02-04T23:04:25.863Z,68.66
2019-02-04T23:06:53.734Z,68.26
2019-02-04T23:09:21.704Z,68.16
2019-02-04T23:11:49.489Z,68.61
2019-02-04T23:14:17.236Z,68.31
2019-02-04T23:16:45.203Z,68.30
2019-02-04T23:19:12.940Z,68.14
2019-02-04T23:21:40.875Z,67.85
2019-02-04T23:24:08.755Z,68.15
2019-02-04T23:26:36.544Z,68.67
2019-02-04T23:29:04.925Z,67.94
2019-02-04T23:31:32.745Z,67.71
2019-02-04T23:34:00.528Z,67.95
2019-02-04T23:36:28.811Z,67.95
2019-02-04T23:38:56.648Z,67.84
2019-02-04T23:41:24.433Z,67.70
2019-02-04T23:43:52.204Z,67.92
2019-02-04T23:46:20.147Z,67.70
2019-02-04T23:48:47.928Z,67.10
2019-02-04T23:51:15.894Z,67.33
2019-02-04T23:53:44.413Z,67.10
2019-02-04T23:56:12.194Z,66.75
2019-02-04T23:58:39.960Z,66.27
